Thaxton, VA

4:28 PM EST on December 22, 2014 (GMT -0500)
Ingalls | Change Station
CLOSE
Current Station
Airport
Location: Hot Springs,
Elevation: 3793 ft
Nearby Weather Stations

Elev 3793 ft 37.95 °N, 79.83 °W | Updated 13 minutes ago

Fog
Fog
30 °F
Feels Like 24 °F
N
6
Wind Variable Wind from East

Today
High -- | Low -- °F
--% Chance of Precip.
Yesterday
High -- | Low -- °F
Precip. -- in
7:29 AM 5:05 PM
New Moon, 1% visible
Pressure 29.97 in
Visibility 0.2 miles
Clouds Overcast 100 ft
Windchill 24 °F
Dew Point 30 °F
Humidity 100%
Rainfall 0.04 in
Snow Depth Not available.
UV 0 out of 12
Pollen .10 out of 12
Air Quality Not available.
Flu Activity Not available.
METAR KHSP 222115Z AUTO 10005KT M1/4SM -SN OVC001 M01/M01 A2997 RMK AO2 T10101010

More Conditions Fewer Conditions

Pressure 29.97 in
Visibility 0.2 miles
Clouds Overcast 100 ft
Windchill 24 °F
Dew Point 30 °F
Humidity 100%
Rainfall 0.04 in
Snow Depth Not available.
UV 0 out of 12
Pollen .10 out of 12
Air Quality Not available.
Flu Activity Not available.
METAR KHSP 222115Z AUTO 10005KT M1/4SM -SN OVC001 M01/M01 A2997 RMK AO2 T10101010

More Conditions Fewer Conditions

10-Day Weather Forecast

Almanac

Astronomy

Dec. 22, 2014 Rise Set
Actual Time
Civil Twilight
Nautical Twilight
Astronomical Twilight
Moon
Length of Visible Light
Length of Day
Tomorrow will be .
, % of the Moon is Illuminated

Today's Extremes

State Highs State Lows

Community

WunderPhotos

Upload Photos

1,779,682 photos uploaded!

WunderBlogs® & News

Nearby

Air Quality

  Air Quality AQ Index Pollutant
Not available.

Snow Depth

Station Depth Elevation

Earthquake Activity

City Distance Mag. Time & Date
Minimum magnitude displayed is 2.5.

Coastal Water Temperatures

Place Temperature

Nearby Weather Stations